New Pine Creek, Oregon
Current Conditions -  °F | °C
As of 3:35 PM on Saturday 22 Nov 2014 (Local Time) from KLKV Reporting Station
Overcast Overcast  
Wind Chill: 27°   Ceiling: 3000
Heat Index: 36°   Visibility: 10mi
Dew Point: 32°   Wind: 14mph
Humidity: 87%   Direction: 280°W
Pressure: 30.05"   Gusts: NA
Location:  42°N, 120.3°W
Report Text: KLKV 222335Z 28012KT 10SM SCT017 BKN030 OVC050 02/00 A3005 RMK AO1
Loading
Personal Weather Stations






























Interactive Weather Map New forecast layout! Learn more

10-Day Weather Forecast

Advertisements
Track Severe Weather on mobile